Flight Track Log - Related Links

Times and Time Zones

All times are in EDT time to prevent confusion due to time zone crossing. See the DAL1114 flight status page for this flight to view local times or setup timezone preferences in your user account.

Time Position Orientation Groundspeed Altitude Reporting Facility
EDT Latitude Longitude Course Direction KTS MPH feet Rate Location/Type
Mon 07:16:15 PM 40.8119 -111.9633 90° East 180 207 5,400  Level Salt Lake Center
Mon 07:16:46 PM 40.8389 -111.9683 352° North 186 214 6,200 1,582 Climbing Salt Lake Center
Mon 07:17:46 PM 40.9031 -111.9778 354° North 249 287 7,800 1,823 Climbing Salt Lake Center
Mon 07:18:00 PM 41.1333 -111.8877 90° East  Level FlightAware Approximate
Mon 07:18:05 PM 40.9236 -111.9800 355° North 251 289 8,600  Level Salt Lake Center
Mon 07:18:47 PM 40.9781 -111.9861 355° North 268 308 10,600 2,710 Climbing Salt Lake Center
Mon 07:19:00 PM 41.0932 -111.7238 133° Southeast  Level FlightAware Approximate
Mon 07:19:07 PM 40.9994 -111.9764 19° North 273 314 11,400  Level Salt Lake Center
Mon 07:20:00 PM 41.0217 -111.5864 78° East  Level FlightAware Approximate
Mon 07:20:08 PM 41.0256 -111.8747 71° East 316 364 13,500  Level Salt Lake Center
Mon 07:21:00 PM 41.0333 -111.4096 90° East  Level FlightAware Approximate
Mon 07:21:10 PM 41.0317 -111.7386 87° East 337 388 15,300  Level Salt Lake Center
Mon 07:22:12 PM 41.0386 -111.5972 86° East 383 441 16,700 1,659 Climbing Salt Lake Center
Mon 07:23:13 PM 41.0456 -111.4444 87° East 413 475 18,700 1,415 Climbing Salt Lake Center
Mon 07:24:15 PM 41.0575 -111.2878 84° East 429 494 19,600 1,210 Climbing Salt Lake Center
Mon 07:25:17 PM 41.0714 -111.1222 84° East 449 517 21,200 1,366 Climbing Salt Lake Center
Mon 07:26:18 PM 41.1061 -110.9569 74° East 465 535 22,400 1,122 Climbing Salt Lake Center
Mon 07:27:20 PM 41.1519 -110.7761 71° East 481 554 23,500 1,171 Climbing Salt Lake Center
Mon 07:28:21 PM 41.2006 -110.5803 72° East 498 573 24,800 1,024 Climbing Salt Lake Center
Mon 07:29:23 PM 41.2456 -110.4089 71° East 511 588 25,600 871 Climbing Salt Lake Center
Mon 07:30:25 PM 41.2972 -110.2044 71° East 522 601 26,600 683 Climbing Salt Lake Center
Mon 07:31:26 PM 41.3425 -110.0219 72° East 539 620 27,000 683 Climbing Salt Lake Center
Mon 07:32:28 PM 41.3892 -109.8367 71° East 550 633 28,000 1,306 Climbing Salt Lake Center
Mon 07:33:30 PM 41.4431 -109.6211 71° East 549 632 29,700 1,317 Climbing Salt Lake Center
Mon 07:34:31 PM 41.4881 -109.4392 72° East 539 620 30,700 976 Climbing Salt Lake Center
Mon 07:35:33 PM 41.5331 -109.2550 72° East 539 620 31,700 1,073 Climbing Salt Lake Center
Mon 07:36:34 PM 41.5744 -109.0331 76° East 537 618 32,900 476 Climbing Salt Lake Center
Mon 07:38:17 PM 41.5689 -108.7061 91° East 551 634 33,000 48 Climbing Denver Center
Mon 07:38:38 PM 41.5633 -108.6425 97° East 549 632 33,000  Level Salt Lake Center
Mon 07:39:39 PM 41.5467 -108.4144 96° East 554 638 33,000  Level Salt Lake Center
Mon 07:40:41 PM 41.5317 -108.2197 96° East 552 635 33,000  Level Salt Lake Center
Mon 07:41:22 PM 41.5178 -108.0547 96° East 554 638 33,000  Level Denver Center
Mon 07:42:23 PM 41.5031 -107.8606 96° East 551 634 33,000  Level Denver Center
Mon 07:43:25 PM 41.4875 -107.6650 96° East 554 638 33,000 48 Level Denver Center
Mon 07:44:27 PM 41.4672 -107.4367 97° East 557 641 33,100  Climbing Denver Center
Mon 07:45:28 PM 41.4517 -107.2408 96° East 555 639 33,000 -49 Descending Denver Center
Mon 07:46:30 PM 41.4311 -107.0144 97° East 552 635 33,000  Level Denver Center
Mon 07:47:32 PM 41.4150 -106.8192 96° East 555 639 33,000  Level Denver Center
Mon 07:48:33 PM 41.3939 -106.5908 97° East 558 642 33,000  Level Denver Center
Mon 07:49:35 PM 41.3756 -106.4081 98° East 562 647 33,000  Level Denver Center
Mon 07:50:37 PM 41.3556 -106.1797 97° East 557 641 33,000  Level Denver Center
Mon 07:51:38 PM 41.3353 -105.9831 98° East 562 647 33,000  Level Denver Center
Mon 07:52:40 PM 41.3133 -105.7547 97° East 559 643 33,000  Level Denver Center
Mon 07:53:42 PM 41.2933 -105.5581 98° East 560 644 33,000  Level Denver Center
Mon 07:54:55 PM 41.2694 -105.3278 98° East 564 649 33,000  Level Denver Center
Mon 07:55:57 PM 41.2453 -105.0947 98° East 570 656 33,000  Level Denver Center
Mon 07:56:59 PM 41.2214 -104.8669 98° East 564 649 33,000  Level Denver Center
Mon 07:58:01 PM 41.1919 -104.6697 101° East 563 648 33,000  Level Denver Center
Mon 07:59:02 PM 41.1511 -104.4397 103° East 571 657 33,000  Level Denver Center
Mon 08:00:04 PM 41.1156 -104.2456 104° East 568 654 33,000  Level Denver Center
Mon 08:01:06 PM 41.0744 -104.0183 103° East 569 655 33,000  Level Denver Center
Mon 08:02:07 PM 41.0375 -103.8242 104° East 571 657 33,000  Level Denver Center
Mon 08:03:09 PM 40.9947 -103.5964 104° East 572 658 33,000  Level Denver Center
Mon 08:04:11 PM 40.9578 -103.4011 104° East 569 655 33,000  Level Denver Center
Mon 08:05:12 PM 40.9186 -103.1969 104° East 567 652 33,000  Level Denver Center
Mon 08:06:14 PM 40.8783 -102.9933 105° East 569 655 33,000  Level Denver Center
Mon 08:07:16 PM 40.8350 -102.7697 104° East 564 649 33,000  Level Denver Center
Mon 08:08:17 PM 40.7972 -102.5775 104° East 566 651 33,000  Level Denver Center
Mon 08:09:19 PM 40.7581 -102.3856 105° East 567 652 33,000  Level Denver Center
Mon 08:10:33 PM 40.7142 -102.1614 104° East 566 651 33,000  Level Denver Center
Mon 08:11:47 PM 40.6622 -101.9058 105° East 567 652 33,000  Level Denver Center
Mon 08:12:49 PM 40.6169 -101.6850 105° East 563 648 33,000  Level Denver Center
Mon 08:13:51 PM 40.5703 -101.4650 106° East 562 647 33,000  Level Denver Center
Mon 08:14:52 PM 40.5300 -101.2772 106° East 559 643 33,000  Level Denver Center
Mon 08:15:54 PM 40.4844 -101.0597 105° East 558 642 33,000  Level Denver Center
Mon 08:16:56 PM 40.4542 -100.8711 102° East 559 643 33,000  Level Denver Center
Mon 08:17:57 PM 40.4444 -100.6444 93° East 563 648 33,000  Level Denver Center
Mon 08:18:59 PM 40.4369 -100.4528 93° East 558 642 33,000  Level Denver Center
Mon 08:20:01 PM 40.4289 -100.2261 93° East 560 644 33,000  Level Denver Center
Mon 08:21:02 PM 40.4208 -100.0308 93° East 562 647 33,000  Level Denver Center
Mon 08:22:04 PM 40.4117 -99.8111 93° East 559 643 33,000  Level Denver Center
Mon 08:23:06 PM 40.4031 -99.6064 93° East 563 648 33,000  Level Denver Center
Mon 08:24:07 PM 40.3931 -99.4031 94° East 563 648 33,000  Level Denver Center
Mon 08:25:09 PM 40.3836 -99.1997 93° East 562 647 33,000  Level Denver Center
Mon 08:26:11 PM 40.3736 -98.9975 94° East 560 644 33,000  Level Denver Center
Mon 08:27:20 PM 40.3617 -98.7542 94° East 561 646 33,000 46 Level Minneapolis Center
Mon 08:28:21 PM 40.3517 -98.5519 94° East 560 644 33,100 390 Climbing Minneapolis Center
Mon 08:29:23 PM 40.3397 -98.3489 94° East 562 647 33,800 823 Climbing Minneapolis Center
Mon 08:30:25 PM 40.3258 -98.1044 94° East 562 647 34,800 581 Climbing Minneapolis Center
Mon 08:31:27 PM 40.3139 -97.9061 94° East 553 636 35,000 97 Climbing Minneapolis Center
Mon 08:32:29 PM 40.3025 -97.7100 94° East 545 627 35,000  Level Minneapolis Center
Mon 08:33:30 PM 40.2900 -97.5108 95° East 547 629 35,000  Level Minneapolis Center
Mon 08:34:32 PM 40.2758 -97.2944 95° East 546 628 35,000  Level Minneapolis Center
Mon 08:35:34 PM 40.2631 -97.0953 95° East 549 632 35,000  Level Minneapolis Center
Mon 08:36:36 PM 40.2494 -96.8989 95° East 547 629 35,000  Level Minneapolis Center
Mon 08:37:37 PM 40.2358 -96.7061 95° East 539 620 35,000  Level Minneapolis Center
Mon 08:38:39 PM 40.2233 -96.5158 95° East 531 611 35,000  Level Minneapolis Center
Mon 08:39:41 PM 40.2089 -96.3239 96° East 531 611 35,000  Level Minneapolis Center
Mon 08:40:43 PM 40.1994 -96.0917 93° East 533 613 35,000  Level Minneapolis Center
Mon 08:41:44 PM 40.2000 -95.9000 90° East 531 611 35,000  Level Minneapolis Center
Mon 08:42:46 PM 40.1981 -95.7050 91° East 536 617 35,000  Level Minneapolis Center
Mon 08:43:48 PM 40.1975 -95.5136 90° East 531 611 35,000  Level Minneapolis Center
Mon 08:44:50 PM 40.1953 -95.3228 91° East 529 609 35,000  Level Minneapolis Center
Mon 08:45:51 PM 40.1931 -95.1308 91° East 530 610 35,000  Level Minneapolis Center
Mon 08:46:53 PM 40.1925 -94.9392 90° East 529 609 35,000  Level Minneapolis Center
Mon 08:47:55 PM 40.1886 -94.7131 91° East 523 602 35,000  Level Minneapolis Center
Mon 08:48:56 PM 40.1861 -94.5253 91° East 519 597 35,000  Level Minneapolis Center
Mon 08:49:58 PM 40.1828 -94.3314 91° East 520 598 35,000  Level Minneapolis Center
Mon 08:50:51 PM 40.1769 -94.1844 93° East 521 600 35,000  Level Kansas City Center
Mon 08:51:52 PM 40.1714 -93.9922 92° East 525 604 35,000  Level Kansas City Center
Mon 08:52:53 PM 40.1664 -93.8058 92° East 522 601 35,000  Level Kansas City Center
Mon 08:53:54 PM 40.1625 -93.6200 92° East 518 596 35,000  Level Kansas City Center
Mon 08:54:57 PM 40.1567 -93.3967 92° East 518 596 35,000  Level Kansas City Center
Mon 08:55:58 PM 40.1522 -93.2117 92° East 516 594 35,000  Level Kansas City Center
Mon 08:56:58 PM 40.1500 -93.0147 91° East 509 586 35,000  Level Kansas City Center
Mon 08:58:02 PM 40.1414 -92.8347 94° East 514 592 35,000  Level Kansas City Center
Mon 08:59:02 PM 40.1369 -92.6578 92° East 512 589 35,000  Level Kansas City Center
Mon 09:00:03 PM 40.1408 -92.4547 88° East 502 578 35,000  Level Kansas City Center
Mon 09:01:04 PM 40.1519 -92.2772 85° East 506 582 35,000  Level Kansas City Center
Mon 09:02:05 PM 40.1603 -92.1033 86° East 493 567 35,000  Level Kansas City Center
Mon 09:03:09 PM 40.1683 -91.9325 86° East 484 557 35,000  Level Kansas City Center
Mon 09:04:10 PM 40.1758 -91.7600 87° East 481 554 35,000  Level Kansas City Center
Mon 09:05:11 PM 40.1836 -91.5883 87° East 479 551 35,000  Level Kansas City Center
Mon 09:06:13 PM 40.1936 -91.3800 86° East 481 554 35,000  Level Kansas City Center
Mon 09:07:14 PM 40.2014 -91.2039 87° East 486 559 35,000  Level Kansas City Center
Mon 09:08:14 PM 40.2078 -91.0300 87° East 484 557 35,000  Level Kansas City Center
Mon 09:09:15 PM 40.2147 -90.8472 87° East 486 559 35,000  Level Kansas City Center
Mon 09:10:06 PM 40.2208 -90.7069 87° East 485 558 35,000  Level Chicago Center
Mon 09:11:08 PM 40.2269 -90.5306 87° East 486 559 35,000  Level Chicago Center
Mon 09:12:09 PM 40.2331 -90.3547 87° East 486 559 35,000  Level Chicago Center
Mon 09:13:11 PM 40.2392 -90.1450 88° East 484 557 35,000  Level Chicago Center
Mon 09:14:12 PM 40.2444 -89.9681 88° East 489 563 35,000  Level Chicago Center
Mon 09:15:14 PM 40.2497 -89.7903 88° East 493 567 35,000  Level Chicago Center
Mon 09:16:16 PM 40.2536 -89.6158 88° East 487 560 35,000  Level Chicago Center
Mon 09:17:17 PM 40.2550 -89.4383 89° East 491 565 35,000  Level Chicago Center
Mon 09:18:19 PM 40.2561 -89.2628 89° East 486 559 35,000  Level Chicago Center
Mon 09:19:21 PM 40.2581 -89.0528 89° East 484 557 35,000  Level Chicago Center
Mon 09:20:22 PM 40.2594 -88.8781 89° East 482 555 35,000  Level Chicago Center
Mon 09:21:24 PM 40.2600 -88.7017 90° East 485 558 35,000  Level Chicago Center
Mon 09:22:26 PM 40.2603 -88.5261 90° East 484 557 35,000  Level Chicago Center
Mon 09:23:27 PM 40.2611 -88.3336 90° East 484 557 35,000  Level Chicago Center
Mon 09:24:29 PM 40.2617 -88.1589 90° East 485 558 35,000  Level Chicago Center
Mon 09:25:31 PM 40.2611 -87.9822 90° East 488 562 35,000  Level Chicago Center
Mon 09:26:33 PM 40.2608 -87.8053 90° East 490 564 35,000  Level Chicago Center
Mon 09:27:00 PM 40.2597 -87.7272 91° East 488 562 35,000  Level Indianapolis Center
Mon 09:28:01 PM 40.2578 -87.5489 91° East 488 562 35,000  Level Indianapolis Center
Mon 09:28:36 PM 40.2592 -87.4167 89° East 490 564 35,000  Level Chicago Center
Mon 09:29:38 PM 40.2572 -87.2417 91° East 488 562 35,000  Level Chicago Center
Mon 09:30:39 PM 40.2550 -87.0683 91° East 483 556 35,000  Level Chicago Center
Mon 09:31:41 PM 40.2533 -86.8981 91° East 477 549 35,000  Level Chicago Center
Mon 09:32:44 PM 40.2511 -86.7211 91° East 472 543 35,000  Level Chicago Center
Mon 09:33:45 PM 40.2481 -86.5522 91° East 468 539 35,000  Level Chicago Center
Mon 09:34:47 PM 40.2450 -86.3828 91° East 466 536 35,000  Level Chicago Center
Mon 09:35:48 PM 40.2411 -86.1822 91° East 464 534 35,000  Level Chicago Center
Mon 09:36:50 PM 40.2375 -86.0122 92° East 468 539 35,000  Level Chicago Center
Mon 09:37:52 PM 40.2344 -85.8439 91° East 467 537 35,000  Level Chicago Center
Mon 09:38:53 PM 40.2306 -85.6794 92° East 459 528 35,000  Level Chicago Center
Mon 09:39:55 PM 40.2264 -85.5142 92° East 458 527 35,000  Level Chicago Center
Mon 09:40:57 PM 40.2225 -85.3486 92° East 457 526 35,000 -72 Level Chicago Center
Mon 09:41:18 PM 40.2208 -85.2650 91° East 460 529 34,900  Descending Indianapolis Center
Mon 09:42:19 PM 40.2150 -85.0950 93° East 465 535 35,000 49 Climbing Indianapolis Center
Mon 09:43:20 PM 40.2097 -84.9233 92° East 467 537 35,000  Level Indianapolis Center
Mon 09:44:21 PM 40.2061 -84.7522 92° East 467 537 35,000  Level Indianapolis Center
Mon 09:45:23 PM 40.2008 -84.5794 92° East 471 542 35,000  Level Indianapolis Center
Mon 09:46:24 PM 40.1953 -84.4036 92° East 478 550 35,000  Level Indianapolis Center
Mon 09:47:25 PM 40.1878 -84.2292 93° East 477 549 35,000  Level Indianapolis Center
Mon 09:48:26 PM 40.1828 -84.0528 92° East 481 554 35,000 -49 Level Indianapolis Center
Mon 09:49:27 PM 40.1753 -83.8867 93° East 456 525 34,900 -49 Descending Indianapolis Center
Mon 09:50:29 PM 40.1694 -83.7175 93° East 458 527 34,900 49 Level Indianapolis Center
Mon 09:51:30 PM 40.1617 -83.5461 93° East 463 533 35,000 49 Climbing Indianapolis Center
Mon 09:52:31 PM 40.1547 -83.3747 93° East 464 534 35,000  Level Indianapolis Center
Mon 09:53:32 PM 40.1469 -83.2028 93° East 465 535 35,000 -49 Level Indianapolis Center
Mon 09:54:33 PM 40.1397 -83.0322 93° East 465 535 34,900 -49 Descending Indianapolis Center
Mon 09:55:35 PM 40.1314 -82.8625 94° East 462 532 34,900 49 Level Indianapolis Center
Mon 09:56:36 PM 40.1236 -82.6933 93° East 462 532 35,000  Climbing Indianapolis Center
Mon 09:57:37 PM 40.1086 -82.5242 97° East 464 534 34,900 -49 Descending Indianapolis Center
Mon 09:58:38 PM 40.0928 -82.3547 97° East 466 536 34,900  Level Indianapolis Center
Mon 09:59:39 PM 40.0786 -82.1850 96° East 465 535 34,900 33 Level Indianapolis Center
Mon 10:01:41 PM 40.0461 -81.8447 97° East 467 537 35,000 33 Climbing Indianapolis Center
Mon 10:02:42 PM 40.0275 -81.6550 97° East 469 540 35,000  Level Indianapolis Center
Mon 10:03:43 PM 40.0111 -81.4847 97° East 471 542 35,000  Level Indianapolis Center
Mon 10:04:44 PM 39.9944 -81.3139 97° East 473 544 35,000  Level Indianapolis Center
Mon 10:05:45 PM 39.9767 -81.1422 98° East 475 547 35,000  Level Indianapolis Center
Mon 10:06:25 PM 39.9683 -81.0192 95° East 469 540 35,000  Level Cleveland Center
Mon 10:07:25 PM 39.9500 -80.8511 98° East 469 540 35,000  Level Cleveland Center
Mon 10:08:25 PM 39.9336 -80.6833 97° East 464 534 35,000  Level Cleveland Center
Mon 10:09:25 PM 39.9150 -80.5156 98° East 464 534 35,000  Level Cleveland Center
Mon 10:10:25 PM 39.8981 -80.3503 98° East 464 534 35,000 -448 Level Cleveland Center
Mon 10:12:19 PM 39.8625 -80.0492 99° East 468 539 33,700 -759 Descending Washington Center
Mon 10:13:19 PM 39.8328 -79.8906 104° East 463 533 32,800 -950 Descending Washington Center
Mon 10:14:19 PM 39.7989 -79.7292 105° East 458 527 31,800 -950 Descending Washington Center
Mon 10:15:19 PM 39.7650 -79.5653 105° East 464 534 30,900 -1,050 Descending Washington Center
Mon 10:16:19 PM 39.7306 -79.3986 105° East 464 534 29,700 -1,800 Descending Washington Center
Mon 10:17:19 PM 39.6958 -79.2431 106° East 458 527 27,300 -2,250 Descending Washington Center
Mon 10:18:19 PM 39.6650 -79.0933 105° East 445 512 25,200 -2,050 Descending Washington Center
Mon 10:19:19 PM 39.6336 -78.9461 105° East 432 497 23,200 -1,700 Descending Washington Center
Mon 10:20:19 PM 39.5964 -78.7856 107° East 426 490 21,800 -1,500 Descending Washington Center
Mon 10:21:19 PM 39.5647 -78.6442 106° East 421 484 20,200 -1,550 Descending Washington Center
Mon 10:22:19 PM 39.5347 -78.5083 106° East 408 470 18,700 -1,250 Descending Washington Center
Mon 10:23:19 PM 39.5044 -78.3728 106° East 397 457 17,700 -1,250 Descending Washington Center
Mon 10:24:19 PM 39.4742 -78.2425 107° East 387 445 16,200 -1,400 Descending Washington Center
Mon 10:25:19 PM 39.4456 -78.1150 106° East 382 440 14,900 -1,000 Descending Washington Center
Mon 10:26:19 PM 39.4169 -77.9878 106° East 377 434 14,200 -850 Descending Washington Center
Mon 10:27:19 PM 39.3881 -77.8606 106° East 371 427 13,200 -1,300 Descending Washington Center
Mon 10:28:19 PM 39.3986 -77.7347 84° East 351 404 11,600 -1,100 Descending Washington Center
Mon 10:29:19 PM 39.4153 -77.6169 80° East 340 391 11,000 -300 Descending Washington Center
Mon 10:30:19 PM 39.4297 -77.4992 81° East 340 391 11,000  Level Washington Center
Mon 10:31:19 PM 39.4439 -77.3922 80° East 321 369 11,000  Level Washington Center
Mon 10:32:19 PM 39.4558 -77.2875 82° East 304 350 11,000 -732 Level Washington Center
Mon 10:33:22 PM 39.4500 -77.1667 94° East 298 343 9,500 -2,016 Descending Potomac TRACON
Mon 10:34:21 PM 39.4167 -77.0833 117° Southeast 282 325 6,900 -2,370 Descending Potomac TRACON
Mon 10:35:21 PM 39.3667 -77.0167 134° Southeast 267 307 4,800 -1,850 Descending Potomac TRACON
Mon 10:36:21 PM 39.3000 -76.9667 150° Southeast 258 297 3,200 -900 Descending Potomac TRACON
Mon 10:37:21 PM 39.2333 -76.9833 191° South 234 269 3,000 -100 Descending Potomac TRACON
Mon 10:38:21 PM 39.2000 -76.9333 131° Southeast 208 239 3,000 50 Level Potomac TRACON
Mon 10:39:21 PM 39.1833 -76.8667 108° East 168 193 3,100 100 Climbing Potomac TRACON

Login

Don't have an account? Register now (free) for customized features, flight alerts, and more!